Time;durP1;ratioP1;P1;durP2;ratioP2;P2;SDS_P1;SDS_P2;PMS_P1;PMS_P2;Temp;Humidity;BMP_temperature;BMP_pressure;BME280_temperature;BME280_humidity;BME280_pressure;Samples;Min_cycle;Max_cycle;Signal;HPM_P1;HPM_P2
2021/03/30 00:02:18;;;;;;;18.90;11.55;;;10.10;64.30;;;;;;4761214;30;20066;-81
2021/03/30 00:04:45;;;;;;;13.60;8.30;;;10.20;64.50;;;;;;4745004;30;20063;-81
2021/03/30 00:07:11;;;;;;;18.25;10.77;;;10.10;64.50;;;;;;4750140;30;20054;-77
2021/03/30 00:09:38;;;;;;;19.58;10.20;;;10.10;65.30;;;;;;4765948;29;20055;-80
2021/03/30 00:12:05;;;;;;;16.85;10.02;;;10.10;65.00;;;;;;4768894;30;20047;-79
2021/03/30 00:14:31;;;;;;;14.30;8.55;;;10.10;65.10;;;;;;4780856;30;20054;-79
2021/03/30 00:16:58;;;;;;;19.23;9.05;;;10.10;65.20;;;;;;4749595;30;20161;-79
2021/03/30 00:19:25;;;;;;;21.02;10.52;;;10.10;65.30;;;;;;4762468;30;20067;-79
2021/03/30 00:21:51;;;;;;;18.13;9.27;;;10.10;65.50;;;;;;4762080;30;20072;-79
2021/03/30 00:24:18;;;;;;;15.88;8.43;;;10.10;65.70;;;;;;4759694;30;20063;-79
2021/03/30 00:26:44;;;;;;;12.27;6.60;;;10.00;65.70;;;;;;4736354;30;20044;-79
2021/03/30 00:29:11;;;;;;;14.90;8.30;;;10.00;65.70;;;;;;4754134;30;20055;-79
2021/03/30 00:31:37;;;;;;;14.13;7.07;;;10.00;66.00;;;;;;4759917;30;20044;-80
2021/03/30 00:34:04;;;;;;;13.00;7.45;;;10.00;66.20;;;;;;4745755;30;20074;-79
2021/03/30 00:36:30;;;;;;;11.70;7.32;;;9.90;66.20;;;;;;4763068;30;20056;-79
2021/03/30 00:38:57;;;;;;;10.27;7.20;;;9.90;66.50;;;;;;4762086;30;20067;-79
2021/03/30 00:41:23;;;;;;;12.00;7.10;;;9.90;66.70;;;;;;4761200;30;20060;-79
2021/03/30 00:43:50;;;;;;;11.02;7.25;;;9.90;67.40;;;;;;4746332;30;20051;-79
2021/03/30 00:46:19;;;;;;;13.85;7.90;;;9.80;67.00;;;;;;4761648;30;20600;-77
2021/03/30 00:48:47;;;;;;;13.50;7.15;;;9.80;67.30;;;;;;4761183;30;20047;-77
2021/03/30 00:51:19;;;;;;;12.63;7.50;;;9.70;67.40;;;;;;4760835;30;20047;-77
2021/03/30 00:53:57;;;;;;;11.85;6.63;;;9.70;68.20;;;;;;4759106;30;20048;-77
2021/03/30 00:56:46;;;;;;;12.15;6.75;;;9.60;67.60;;;;;;4760900;30;20036;-77
2021/03/30 00:59:16;;;;;;;11.10;6.95;;;9.50;67.70;;;;;;4731498;30;20039;-77
2021/03/30 01:01:43;;;;;;;11.25;6.60;;;9.50;68.10;;;;;;4761021;30;21123;-77
2021/03/30 01:04:10;;;;;;;14.65;7.63;;;9.40;68.20;;;;;;4761198;30;20074;-77
2021/03/30 01:06:36;;;;;;;12.90;6.93;;;9.40;68.50;;;;;;4748084;30;20047;-77
2021/03/30 01:09:03;;;;;;;12.85;7.55;;;9.30;68.80;;;;;;4746473;30;20067;-76
2021/03/30 01:12:07;;;;;;;9.40;6.43;;;9.30;68.90;;;;;;4759673;30;20062;-78
2021/03/30 01:14:52;;;;;;;12.88;6.95;;;9.20;69.20;;;;;;4763108;30;20583;-80
2021/03/30 01:17:40;;;;;;;15.45;9.85;;;9.20;69.40;;;;;;4755678;30;20042;-80
2021/03/30 01:20:44;;;;;;;11.85;7.60;;;9.20;69.70;;;;;;4744979;30;20051;-77
2021/03/30 01:23:47;;;;;;;11.65;6.95;;;9.10;69.90;;;;;;4761382;30;20046;-80
2021/03/30 01:26:26;;;;;;;12.18;6.93;;;9.00;70.10;;;;;;4761846;30;20058;-78
2021/03/30 01:29:11;;;;;;;13.30;7.57;;;8.90;70.00;;;;;;4761802;30;20062;-76
2021/03/30 01:31:49;;;;;;;12.02;7.85;;;8.90;70.40;;;;;;4744263;30;20062;-76
2021/03/30 01:34:19;;;;;;;8.77;5.75;;;8.80;70.60;;;;;;4759201;30;20064;-76
2021/03/30 01:36:50;;;;;;;10.52;6.28;;;8.80;70.60;;;;;;4776585;30;20036;-80
2021/03/30 01:39:18;;;;;;;11.80;6.63;;;8.80;70.80;;;;;;4763977;30;20050;-83
2021/03/30 01:41:47;;;;;;;15.13;7.47;;;8.70;70.90;;;;;;4763560;30;20051;-80
2021/03/30 01:44:18;;;;;;;11.30;6.15;;;8.70;71.00;;;;;;4776658;29;20040;-82
2021/03/30 01:46:46;;;;;;;13.38;6.75;;;8.70;71.20;;;;;;4746407;30;20059;-77
2021/03/30 01:49:18;;;;;;;13.82;7.18;;;8.60;71.20;;;;;;4760627;30;20495;-78
2021/03/30 01:51:46;;;;;;;21.08;13.02;;;8.60;71.50;;;;;;4761400;30;20052;-81
2021/03/30 01:54:14;;;;;;;19.83;11.57;;;8.60;71.70;;;;;;4760394;30;20878;-78
2021/03/30 01:56:42;;;;;;;20.83;13.65;;;8.50;71.80;;;;;;4761065;30;20035;-82
2021/03/30 01:59:12;;;;;;;29.13;19.17;;;8.50;72.00;;;;;;4762877;30;20036;-81
2021/03/30 02:01:39;;;;;;;22.58;14.50;;;8.50;72.20;;;;;;4765392;30;20047;-79
2021/03/30 02:04:07;;;;;;;20.23;12.67;;;8.40;72.40;;;;;;4759077;30;20051;-79
2021/03/30 02:06:36;;;;;;;18.20;9.98;;;8.40;72.80;;;;;;4776678;30;20067;-79
2021/03/30 02:09:11;;;;;;;15.13;8.57;;;8.30;72.90;;;;;;4762449;30;20070;-80
2021/03/30 02:11:48;;;;;;;14.35;8.30;;;8.20;73.10;;;;;;4747059;30;20052;-79
2021/03/30 02:14:15;;;;;;;13.43;8.15;;;8.20;73.10;;;;;;4760627;30;20058;-79
2021/03/30 02:16:58;;;;;;;13.73;8.18;;;8.10;73.20;;;;;;4747317;30;20059;-79
2021/03/30 02:19:34;;;;;;;12.95;6.85;;;8.10;73.60;;;;;;4763674;30;20408;-80
2021/03/30 02:22:08;;;;;;;13.57;7.90;;;8.00;73.80;;;;;;4764676;30;20036;-79
2021/03/30 02:24:38;;;;;;;13.55;8.70;;;8.00;74.10;;;;;;4764402;30;20036;-79
2021/03/30 02:27:09;;;;;;;12.02;7.18;;;7.90;74.30;;;;;;4764510;30;20043;-76
2021/03/30 02:29:36;;;;;;;14.87;8.10;;;7.80;74.50;;;;;;4763283;30;20102;-75
2021/03/30 02:32:07;;;;;;;13.23;7.20;;;7.80;74.70;;;;;;4760745;30;20056;-76
2021/03/30 02:34:35;;;;;;;14.73;7.43;;;7.80;74.90;;;;;;4762803;30;20052;-76
2021/03/30 02:37:02;;;;;;;11.90;7.45;;;7.80;74.90;;;;;;4764126;30;20519;-75
2021/03/30 02:39:29;;;;;;;14.73;8.23;;;7.80;75.10;;;;;;4762213;30;20408;-76
2021/03/30 02:41:57;;;;;;;14.07;7.53;;;7.70;75.30;;;;;;4748291;30;20048;-75
2021/03/30 02:44:25;;;;;;;14.67;7.10;;;7.70;75.50;;;;;;4762615;30;20039;-75
2021/03/30 02:46:54;;;;;;;15.63;8.27;;;7.70;75.60;;;;;;4763774;29;20056;-75
2021/03/30 02:49:23;;;;;;;17.27;8.77;;;7.60;75.70;;;;;;4747899;30;20055;-75
2021/03/30 02:51:51;;;;;;;14.00;9.52;;;7.60;75.90;;;;;;4763783;30;20516;-75
2021/03/30 02:54:19;;;;;;;16.40;8.57;;;7.60;76.40;;;;;;4761006;30;20056;-75
2021/03/30 02:56:47;;;;;;;16.03;9.20;;;7.60;76.40;;;;;;4762048;30;20051;-75
2021/03/30 02:59:17;;;;;;;17.35;8.35;;;7.50;76.40;;;;;;4762406;30;20036;-75
2021/03/30 03:01:46;;;;;;;17.15;8.60;;;7.50;76.50;;;;;;4761635;30;20480;-75
2021/03/30 03:04:12;;;;;;;15.37;8.90;;;7.50;76.70;;;;;;4760616;30;20067;-75
2021/03/30 03:06:41;;;;;;;19.23;10.23;;;7.50;76.70;;;;;;4764100;30;20044;-76
2021/03/30 03:09:09;;;;;;;17.85;8.85;;;7.50;77.00;;;;;;4763811;30;20059;-75
2021/03/30 03:11:39;;;;;;;14.63;8.73;;;7.50;77.00;;;;;;4762351;30;20068;-76
2021/03/30 03:14:08;;;;;;;14.50;8.90;;;7.50;77.10;;;;;;4746762;30;20055;-76
2021/03/30 03:16:35;;;;;;;12.77;7.17;;;7.40;77.10;;;;;;4761988;30;20047;-76
2021/03/30 03:19:07;;;;;;;16.17;9.45;;;7.40;77.20;;;;;;4764188;30;20052;-76
2021/03/30 03:21:36;;;;;;;17.20;9.55;;;7.40;77.50;;;;;;4746598;30;20059;-76
2021/03/30 03:24:05;;;;;;;16.70;8.93;;;7.30;77.60;;;;;;4747636;30;20051;-76
2021/03/30 03:26:32;;;;;;;17.58;9.07;;;7.30;77.80;;;;;;4755498;30;20071;-76
2021/03/30 03:28:58;;;;;;;15.80;9.60;;;7.30;77.80;;;;;;4763503;30;20056;-76
2021/03/30 03:31:29;;;;;;;15.10;9.27;;;7.20;77.90;;;;;;4760843;30;20051;-76
2021/03/30 03:34:02;;;;;;;17.23;9.73;;;7.20;78.10;;;;;;4760772;30;20078;-76
2021/03/30 03:36:37;;;;;;;16.53;8.93;;;7.10;78.30;;;;;;4760650;30;20066;-76
2021/03/30 03:39:05;;;;;;;14.40;8.67;;;7.10;78.40;;;;;;4746915;30;20060;-76
2021/03/30 03:41:32;;;;;;;14.43;7.90;;;7.10;78.50;;;;;;4760672;30;20598;-76
2021/03/30 03:43:59;;;;;;;17.50;8.90;;;7.00;78.50;;;;;;4762388;30;20092;-76
2021/03/30 03:46:25;;;;;;;15.80;8.43;;;7.00;78.60;;;;;;4763406;30;20086;-77
2021/03/30 03:48:52;;;;;;;17.20;8.43;;;7.00;78.60;;;;;;4747206;30;20048;-76
2021/03/30 03:51:19;;;;;;;16.13;8.67;;;7.00;78.70;;;;;;4760808;30;20035;-76
2021/03/30 03:53:49;;;;;;;17.20;9.93;;;7.00;78.80;;;;;;4762208;30;20055;-76
2021/03/30 03:56:20;;;;;;;15.73;8.57;;;7.00;79.10;;;;;;4762867;30;20058;-76
2021/03/30 03:58:49;;;;;;;16.77;9.93;;;7.00;79.20;;;;;;4762971;30;20541;-76
2021/03/30 04:01:22;;;;;;;17.43;10.10;;;6.90;79.20;;;;;;4775408;29;20052;-76
2021/03/30 04:04:01;;;;;;;19.33;11.83;;;6.90;79.50;;;;;;4764281;30;20056;-77
2021/03/30 04:06:39;;;;;;;19.77;11.27;;;6.90;79.70;;;;;;4765353;30;20043;-77
2021/03/30 04:09:09;;;;;;;19.83;11.37;;;6.90;79.90;;;;;;4766767;30;20062;-75
2021/03/30 04:11:37;;;;;;;17.08;9.20;;;6.90;80.00;;;;;;4749449;30;21065;-77
2021/03/30 04:14:03;;;;;;;25.57;13.90;;;6.80;80.00;;;;;;4750346;30;20063;-77
2021/03/30 04:16:30;;;;;;;36.83;20.30;;;6.80;80.10;;;;;;4748625;30;20043;-77
2021/03/30 04:18:57;;;;;;;46.90;26.07;;;6.80;80.30;;;;;;4763593;30;20047;-77
2021/03/30 04:21:30;;;;;;;57.90;31.07;;;6.80;80.30;;;;;;4746876;30;20500;-77
2021/03/30 04:23:58;;;;;;;48.35;25.92;;;6.80;80.40;;;;;;4762073;30;20056;-78
2021/03/30 04:26:26;;;;;;;33.93;17.13;;;6.80;80.50;;;;;;4761591;30;20044;-78
2021/03/30 04:28:52;;;;;;;31.20;17.13;;;6.70;80.60;;;;;;4760053;30;20048;-77
2021/03/30 04:31:19;;;;;;;35.53;16.67;;;6.70;80.80;;;;;;4731814;30;20044;-77
2021/03/30 04:33:47;;;;;;;28.87;16.57;;;6.70;80.90;;;;;;4731311;30;20610;-77
2021/03/30 04:36:13;;;;;;;36.00;19.83;;;6.70;81.00;;;;;;4761431;30;20094;-77
2021/03/30 04:38:40;;;;;;;28.60;14.60;;;6.60;81.00;;;;;;4731725;30;20043;-77
2021/03/30 04:41:07;;;;;;;19.47;11.20;;;6.60;81.10;;;;;;4748123;30;20055;-77
2021/03/30 04:43:34;;;;;;;17.80;9.50;;;6.60;81.20;;;;;;4746431;30;20036;-77
2021/03/30 04:46:00;;;;;;;20.97;12.20;;;6.60;81.20;;;;;;4763964;30;20044;-76
2021/03/30 04:48:27;;;;;;;18.73;10.50;;;6.60;81.30;;;;;;4749725;30;20044;-76
2021/03/30 04:50:54;;;;;;;18.67;9.70;;;6.60;81.60;;;;;;4761508;30;20370;-76
2021/03/30 04:53:20;;;;;;;16.37;9.17;;;6.60;81.60;;;;;;4757762;30;20046;-76
2021/03/30 04:55:47;;;;;;;20.90;11.40;;;6.50;81.70;;;;;;4760019;30;20492;-76
2021/03/30 04:58:13;;;;;;;18.93;9.30;;;6.50;81.70;;;;;;4745947;30;20074;-76
2021/03/30 05:00:41;;;;;;;19.57;11.00;;;6.50;81.90;;;;;;4774463;29;20040;-77
2021/03/30 05:03:08;;;;;;;21.07;12.87;;;6.50;82.10;;;;;;4744156;30;20039;-77
2021/03/30 05:05:38;;;;;;;27.40;14.73;;;6.40;82.20;;;;;;4744451;30;20039;-77
2021/03/30 05:08:05;;;;;;;23.53;11.93;;;6.40;82.40;;;;;;4758579;30;20055;-77
2021/03/30 05:10:31;;;;;;;19.07;10.83;;;6.40;82.50;;;;;;4745412;30;20050;-77
2021/03/30 05:12:58;;;;;;;20.17;11.40;;;6.40;82.50;;;;;;4743166;30;20044;-77
2021/03/30 05:15:24;;;;;;;22.87;12.03;;;6.30;82.60;;;;;;4759893;30;20062;-77
2021/03/30 05:17:51;;;;;;;23.87;13.23;;;6.30;82.70;;;;;;4760712;30;20468;-78
2021/03/30 05:20:17;;;;;;;29.90;17.03;;;6.30;82.90;;;;;;4747396;30;20040;-79
2021/03/30 05:22:44;;;;;;;25.57;14.30;;;6.30;83.00;;;;;;4758971;30;20052;-78
2021/03/30 05:25:12;;;;;;;28.43;14.80;;;6.30;83.10;;;;;;4735740;30;20052;-78
2021/03/30 05:27:38;;;;;;;22.73;13.53;;;6.30;83.20;;;;;;4746231;30;20046;-78
2021/03/30 05:30:07;;;;;;;20.83;11.23;;;6.30;83.20;;;;;;4731788;30;20062;-78
2021/03/30 05:32:35;;;;;;;19.60;10.47;;;6.30;83.30;;;;;;4743560;30;20050;-78
2021/03/30 05:35:05;;;;;;;20.97;11.83;;;6.30;83.30;;;;;;4761414;30;20062;-78
2021/03/30 05:37:32;;;;;;;18.80;9.80;;;6.30;83.40;;;;;;4730344;30;20054;-78
2021/03/30 05:39:58;;;;;;;27.73;13.67;;;6.40;83.30;;;;;;4762007;30;20044;-78
2021/03/30 05:42:25;;;;;;;19.17;11.33;;;6.40;83.40;;;;;;4743340;30;20051;-78
2021/03/30 05:44:53;;;;;;;23.83;13.00;;;6.50;83.40;;;;;;4745509;30;20054;-79
2021/03/30 05:47:23;;;;;;;21.30;11.63;;;6.60;84.00;;;;;;4760877;30;20055;-78
2021/03/30 05:49:51;;;;;;;20.77;10.40;;;6.60;83.40;;;;;;4730701;30;20036;-78
2021/03/30 05:52:48;;;;;;;20.43;11.13;;;6.60;83.40;;;;;;4760064;30;20036;-78
2021/03/30 05:55:21;;;;;;;19.20;10.23;;;6.70;83.60;;;;;;4762270;30;20365;-78
2021/03/30 05:57:50;;;;;;;21.50;12.70;;;6.80;83.50;;;;;;4748901;30;20052;-78
2021/03/30 06:00:21;;;;;;;29.03;14.70;;;6.90;83.50;;;;;;4734499;30;20392;-77
2021/03/30 06:02:51;;;;;;;23.13;13.17;;;7.00;83.50;;;;;;4758465;30;20048;-76
2021/03/30 06:05:17;;;;;;;24.30;13.40;;;7.10;83.30;;;;;;4764884;30;20044;-81
2021/03/30 06:07:44;;;;;;;24.93;14.30;;;7.20;83.10;;;;;;4765689;30;20167;-81
2021/03/30 06:10:16;;;;;;;21.90;11.50;;;7.40;83.00;;;;;;4771297;30;20603;-81
2021/03/30 06:12:43;;;;;;;23.65;11.10;;;7.50;82.90;;;;;;4771728;30;20055;-81
2021/03/30 06:15:33;;;;;;;28.30;13.90;;;7.70;82.50;;;;;;4765568;30;20075;-81
2021/03/30 06:18:01;;;;;;;22.25;12.10;;;7.90;82.20;;;;;;4756491;30;20067;-81
2021/03/30 06:20:35;;;;;;;20.60;11.73;;;8.20;81.90;;;;;;4771239;30;20048;-81
2021/03/30 06:23:06;;;;;;;18.40;11.23;;;8.40;81.60;;;;;;4764850;30;20094;-82
2021/03/30 06:25:50;;;;;;;20.63;10.83;;;8.70;81.20;;;;;;4770182;30;20066;-81
2021/03/30 06:28:20;;;;;;;26.00;12.70;;;8.90;80.90;;;;;;4766650;30;20069;-81
2021/03/30 06:31:12;;;;;;;22.63;12.77;;;9.10;80.40;;;;;;4766657;30;20480;-81
2021/03/30 06:33:58;;;;;;;23.00;12.77;;;9.40;80.20;;;;;;4763920;30;20055;-82
2021/03/30 06:36:32;;;;;;;25.20;12.07;;;9.70;79.80;;;;;;4780235;30;20051;-81
2021/03/30 06:39:06;;;;;;;29.50;14.45;;;9.90;79.30;;;;;;4765209;30;20040;-81
2021/03/30 06:41:55;;;;;;;25.33;13.38;;;10.10;79.00;;;;;;4756065;30;20059;-80
2021/03/30 06:44:28;;;;;;;30.83;17.20;;;10.40;78.70;;;;;;4772481;30;20043;-84
2021/03/30 06:47:05;;;;;;;28.38;15.65;;;10.60;78.20;;;;;;4737578;30;20048;-78
2021/03/30 06:49:38;;;;;;;31.98;16.88;;;10.80;78.00;;;;;;4764640;30;20051;-82
2021/03/30 06:52:16;;;;;;;29.83;16.17;;;11.00;77.70;;;;;;4749756;30;20048;-82
2021/03/30 06:54:58;;;;;;;27.52;15.70;;;11.20;77.40;;;;;;4757119;30;20051;-81
2021/03/30 06:57:34;;;;;;;34.25;18.40;;;11.40;77.00;;;;;;4767097;30;20051;-82
2021/03/30 07:00:12;;;;;;;27.50;14.52;;;11.60;76.50;;;;;;4765690;30;20039;-82
2021/03/30 07:02:45;;;;;;;25.65;14.65;;;11.80;76.20;;;;;;4769923;30;20050;-82
2021/03/30 07:05:33;;;;;;;32.22;17.05;;;11.90;75.90;;;;;;4748218;30;20685;-81
2021/03/30 07:08:02;;;;;;;27.42;16.10;;;12.10;75.60;;;;;;4769153;30;20039;-81
2021/03/30 07:10:29;;;;;;;29.75;16.38;;;12.20;75.20;;;;;;4764520;30;20044;-81
2021/03/30 07:12:59;;;;;;;27.95;15.65;;;12.40;74.90;;;;;;4762772;30;20047;-82
2021/03/30 07:15:26;;;;;;;30.08;18.17;;;12.50;74.50;;;;;;4762270;30;20044;-82
2021/03/30 07:18:07;;;;;;;35.67;17.70;;;12.60;74.00;;;;;;4762819;30;20048;-77
2021/03/30 07:20:41;;;;;;;34.38;19.27;;;12.80;73.50;;;;;;4762797;30;20789;-78
2021/03/30 07:23:21;;;;;;;28.45;16.90;;;12.90;73.30;;;;;;4758865;30;20039;-77
2021/03/30 07:26:05;;;;;;;27.65;16.88;;;13.00;73.10;;;;;;4761362;30;20416;-78
2021/03/30 07:28:35;;;;;;;27.88;15.73;;;13.20;72.90;;;;;;4762769;30;20036;-78
2021/03/30 07:31:06;;;;;;;32.47;16.77;;;13.30;72.40;;;;;;4762050;30;20039;-78
2021/03/30 07:33:58;;;;;;;34.60;18.83;;;13.50;72.50;;;;;;4759508;30;20050;-77
2021/03/30 07:36:28;;;;;;;31.35;17.83;;;13.60;71.50;;;;;;4775891;29;20040;-77
2021/03/30 07:38:59;;;;;;;30.25;17.70;;;13.80;71.30;;;;;;4763766;30;20043;-82
2021/03/30 07:41:26;;;;;;;30.55;17.70;;;13.90;70.80;;;;;;4762704;30;20039;-83
2021/03/30 07:43:58;;;;;;;28.17;17.10;;;14.00;70.10;;;;;;4733914;30;20055;-83
2021/03/30 07:46:33;;;;;;;31.40;18.02;;;14.10;69.70;;;;;;4778812;30;20051;-83
2021/03/30 07:49:03;;;;;;;28.95;17.15;;;14.20;69.20;;;;;;4756473;30;20052;-82
2021/03/30 07:51:35;;;;;;;29.75;18.40;;;14.40;69.00;;;;;;4753833;30;20051;-83
2021/03/30 07:54:13;;;;;;;32.75;20.27;;;14.80;68.60;;;;;;4767715;30;20070;-83
2021/03/30 07:56:47;;;;;;;34.17;20.63;;;15.00;66.70;;;;;;4770022;30;20040;-81
2021/03/30 07:59:44;;;;;;;31.75;18.77;;;15.30;66.10;;;;;;4766411;30;20054;-82
2021/03/30 08:02:16;;;;;;;33.25;19.50;;;15.50;65.40;;;;;;4773638;30;20051;-83
2021/03/30 08:05:04;;;;;;;31.10;18.70;;;15.60;65.10;;;;;;4781727;29;20040;-83
2021/03/30 08:07:53;;;;;;;25.65;16.35;;;15.70;64.70;;;;;;4768687;30;20064;-83
2021/03/30 08:10:22;;;;;;;31.60;16.90;;;15.80;64.70;;;;;;4772808;29;20048;-83
2021/03/30 08:12:49;;;;;;;30.77;18.35;;;15.80;64.30;;;;;;4753556;30;20039;-83
2021/03/30 08:15:44;;;;;;;29.58;18.83;;;15.90;64.10;;;;;;4771359;30;20051;-83
2021/03/30 08:18:12;;;;;;;29.20;19.58;;;16.10;63.90;;;;;;4769451;30;20039;-83
2021/03/30 08:20:58;;;;;;;32.17;18.67;;;16.20;63.20;;;;;;4772670;29;20066;-83
2021/03/30 08:23:26;;;;;;;31.35;20.05;;;16.20;62.60;;;;;;4767680;30;20044;-83
2021/03/30 08:26:17;;;;;;;36.47;19.67;;;16.30;61.90;;;;;;4768832;30;20047;-83
2021/03/30 08:28:48;;;;;;;28.17;16.83;;;16.40;61.50;;;;;;4765875;30;20059;-83
2021/03/30 08:31:16;;;;;;;32.28;19.55;;;16.50;61.50;;;;;;4753736;30;20043;-83
2021/03/30 08:33:44;;;;;;;30.63;20.00;;;16.60;61.10;;;;;;4764207;30;20066;-84
2021/03/30 08:36:24;;;;;;;30.48;18.13;;;16.70;60.70;;;;;;4765030;30;20551;-83
2021/03/30 08:38:54;;;;;;;30.88;20.52;;;16.70;60.40;;;;;;4748908;30;20055;-83
2021/03/30 08:41:42;;;;;;;28.10;17.60;;;16.80;60.00;;;;;;4737685;30;20040;-82
2021/03/30 08:44:15;;;;;;;26.73;17.02;;;16.90;60.40;;;;;;4761846;30;20504;-84
2021/03/30 08:46:48;;;;;;;32.92;19.20;;;17.00;60.50;;;;;;4773202;30;20051;-84
2021/03/30 08:49:32;;;;;;;39.15;22.30;;;17.20;60.20;;;;;;4759294;30;20047;-83
2021/03/30 08:52:02;;;;;;;29.70;18.33;;;17.30;59.60;;;;;;4762920;30;20058;-83
2021/03/30 08:54:37;;;;;;;28.25;17.92;;;17.30;59.80;;;;;;4748359;30;20055;-83
2021/03/30 08:57:11;;;;;;;29.92;18.73;;;17.50;59.90;;;;;;4738191;30;20051;-83
2021/03/30 08:59:39;;;;;;;31.02;20.42;;;17.50;59.60;;;;;;4778326;30;20050;-83
2021/03/30 09:02:13;;;;;;;29.92;20.08;;;17.60;59.20;;;;;;4747635;30;20527;-83
2021/03/30 09:04:44;;;;;;;32.53;20.55;;;17.60;59.10;;;;;;4748475;30;20052;-83
2021/03/30 09:07:11;;;;;;;24.73;17.33;;;17.70;59.00;;;;;;4760693;30;20043;-82
2021/03/30 09:09:38;;;;;;;31.92;21.38;;;17.70;59.20;;;;;;4763591;30;20052;-83
2021/03/30 09:12:25;;;;;;;33.63;22.00;;;17.80;58.90;;;;;;4763193;30;20388;-82
2021/03/30 09:15:04;;;;;;;31.88;19.42;;;17.80;58.40;;;;;;4778252;30;20047;-82
2021/03/30 09:17:30;;;;;;;30.00;19.25;;;17.80;58.60;;;;;;4763033;30;20424;-82
2021/03/30 09:20:00;;;;;;;30.27;19.95;;;17.90;58.50;;;;;;4733579;30;20047;-83
2021/03/30 09:22:32;;;;;;;31.75;20.42;;;18.00;58.40;;;;;;4763137;30;20048;-82
2021/03/30 09:27:40;;;;;;;31.80;20.20;;;18.20;58.10;;;;;;4762511;30;20060;-82
2021/03/30 09:30:10;;;;;;;31.45;19.15;;;18.30;58.00;;;;;;4762412;30;20040;-82
2021/03/30 09:32:40;;;;;;;32.55;19.75;;;18.50;58.00;;;;;;4745066;30;20054;-82
2021/03/30 09:35:11;;;;;;;28.73;18.33;;;18.60;57.90;;;;;;4763827;30;20052;-82
2021/03/30 09:37:54;;;;;;;32.47;19.33;;;18.80;57.60;;;;;;4763287;30;20515;-80
2021/03/30 09:40:25;;;;;;;;;;;18.90;57.50;;;;;;4764263;30;20419;-81
2021/03/30 09:42:52;;;;;;;29.98;18.60;;;19.10;57.10;;;;;;4760638;30;19924;-80
2021/03/30 09:45:30;;;;;;;30.08;20.05;;;19.20;56.40;;;;;;4741524;30;20492;-80
2021/03/30 09:47:59;;;;;;;31.15;19.02;;;19.30;55.50;;;;;;4759650;30;20040;-81
2021/03/30 09:50:27;;;;;;;27.80;17.58;;;19.50;55.20;;;;;;4746537;30;20044;-81
2021/03/30 09:53:04;;;;;;;25.02;15.95;;;19.60;54.80;;;;;;4751754;30;20047;-81
2021/03/30 09:55:36;;;;;;;23.27;16.25;;;19.70;54.40;;;;;;4763682;30;20043;-78
2021/03/30 09:58:15;;;;;;;26.30;19.60;;;19.80;54.10;;;;;;4762391;30;20040;-78
2021/03/30 10:00:47;;;;;;;31.65;20.42;;;19.90;52.70;;;;;;4761308;30;20047;-79
2021/03/30 10:03:15;;;;;;;28.13;17.92;;;20.10;52.20;;;;;;4758764;30;20875;-79
2021/03/30 10:05:43;;;;;;;32.03;18.85;;;20.20;52.50;;;;;;4746702;30;20035;-80
2021/03/30 10:08:26;;;;;;;21.88;14.70;;;20.30;51.80;;;;;;4762339;29;20036;-80
2021/03/30 10:10:55;;;;;;;23.02;15.25;;;20.40;51.90;;;;;;4760085;30;20055;-79
2021/03/30 10:13:32;;;;;;;24.90;15.77;;;20.60;51.30;;;;;;4756972;30;20056;-79
2021/03/30 10:16:01;;;;;;;21.50;14.43;;;20.80;50.30;;;;;;4760336;30;20048;-80
2021/03/30 10:18:28;;;;;;;23.02;12.98;;;20.90;49.20;;;;;;4746511;30;20059;-81
2021/03/30 10:21:12;;;;;;;18.70;11.50;;;21.00;48.40;;;;;;4762389;30;20059;-80
2021/03/30 10:23:50;;;;;;;15.52;9.82;;;21.10;47.90;;;;;;4758257;30;20055;-80
2021/03/30 10:26:19;;;;;;;17.02;10.35;;;21.30;47.10;;;;;;4745694;30;20066;-82
2021/03/30 10:28:56;;;;;;;20.80;12.55;;;21.60;47.10;;;;;;4761346;30;20036;-79
2021/03/30 10:31:29;;;;;;;16.75;11.73;;;21.90;46.30;;;;;;4759062;30;20246;-82
2021/03/30 10:33:55;;;;;;;12.05;7.43;;;22.10;46.30;;;;;;4761076;30;20043;-81
2021/03/30 10:36:22;;;;;;;17.77;10.23;;;22.40;45.40;;;;;;4764067;30;20441;-82
2021/03/30 10:39:09;;;;;;;20.98;13.93;;;22.70;43.30;;;;;;4761704;30;20055;-83
2021/03/30 10:41:42;;;;;;;23.25;13.20;;;23.00;42.60;;;;;;4764926;30;20066;-82
2021/03/30 10:44:14;;;;;;;27.35;17.42;;;23.20;41.60;;;;;;4764735;30;20039;-81
2021/03/30 10:46:48;;;;;;;18.88;12.13;;;23.50;40.30;;;;;;4751729;30;20066;-83
2021/03/30 10:49:15;;;;;;;23.55;13.80;;;23.80;41.50;;;;;;4765879;30;20050;-83
2021/03/30 10:51:46;;;;;;;16.85;11.45;;;24.10;39.40;;;;;;4765355;30;20510;-82
2021/03/30 10:54:14;;;;;;;16.77;10.68;;;24.30;39.40;;;;;;4763786;30;20048;-84
2021/03/30 10:56:42;;;;;;;17.23;9.57;;;24.60;39.20;;;;;;4765520;30;20044;-82
2021/03/30 10:59:10;;;;;;;17.55;11.35;;;24.90;37.60;;;;;;4766677;30;20054;-82
2021/03/30 11:01:37;;;;;;;14.95;10.60;;;25.20;37.30;;;;;;4763636;30;20051;-80
2021/03/30 11:04:05;;;;;;;18.48;11.90;;;25.50;37.30;;;;;;4764115;30;20044;-81
2021/03/30 11:06:32;;;;;;;17.73;12.00;;;25.90;36.00;;;;;;4756864;30;20062;-80
2021/03/30 11:08:59;;;;;;;20.23;13.43;;;26.00;35.10;;;;;;4753012;30;20167;-81
2021/03/30 11:11:25;;;;;;;16.52;11.05;;;26.20;35.30;;;;;;4760132;30;20416;-80
2021/03/30 11:13:55;;;;;;;19.73;12.82;;;26.50;35.40;;;;;;4734811;30;20043;-82
2021/03/30 11:16:27;;;;;;;17.30;11.95;;;26.90;34.90;;;;;;4741388;30;20047;-82
2021/03/30 11:18:56;;;;;;;22.60;14.18;;;27.20;33.90;;;;;;4764990;30;20054;-82
2021/03/30 11:21:22;;;;;;;17.23;12.27;;;27.50;32.50;;;;;;4745861;30;20050;-80
2021/03/30 11:23:49;;;;;;;21.23;15.10;;;27.70;32.90;;;;;;4763771;30;20055;-81
2021/03/30 11:26:16;;;;;;;17.25;12.93;;;27.90;31.50;;;;;;4762246;30;20072;-81
2021/03/30 11:28:46;;;;;;;18.98;12.93;;;28.10;31.90;;;;;;4763599;30;20043;-81
2021/03/30 11:31:30;;;;;;;22.77;15.20;;;28.30;32.10;;;;;;4762296;30;20132;-81
2021/03/30 11:34:06;;;;;;;20.58;16.52;;;28.40;31.30;;;;;;4764037;30;20039;-80
2021/03/30 11:36:39;;;;;;;22.17;16.45;;;28.60;31.30;;;;;;4747756;30;20051;-82
2021/03/30 11:39:06;;;;;;;18.50;13.73;;;29.00;31.20;;;;;;4749652;30;20056;-81
2021/03/30 11:41:32;;;;;;;18.23;13.20;;;29.30;31.20;;;;;;4746776;30;20051;-82
2021/03/30 11:43:59;;;;;;;20.27;14.70;;;29.60;30.30;;;;;;4734097;30;20043;-82
2021/03/30 11:46:26;;;;;;;45.80;32.42;;;29.80;29.80;;;;;;4760002;30;20051;-78
2021/03/30 11:48:52;;;;;;;23.35;17.05;;;29.90;29.30;;;;;;4746378;30;20136;-77
2021/03/30 11:51:19;;;;;;;23.38;16.08;;;30.10;29.30;;;;;;4746200;30;20798;-78
2021/03/30 11:53:45;;;;;;;22.02;14.45;;;30.30;28.00;;;;;;4760779;30;20075;-77
2021/03/30 11:56:12;;;;;;;17.45;14.05;;;30.40;28.00;;;;;;4746619;30;20052;-79
2021/03/30 11:58:39;;;;;;;15.95;12.02;;;30.60;27.50;;;;;;4749314;30;20499;-78
2021/03/30 12:01:10;;;;;;;15.15;11.57;;;30.70;27.50;;;;;;4746194;30;20055;-78
2021/03/30 12:03:37;;;;;;;21.92;16.08;;;30.80;27.50;;;;;;4774522;29;20066;-78
2021/03/30 12:06:08;;;;;;;16.55;14.00;;;30.80;27.10;;;;;;4746363;30;20424;-78
2021/03/30 12:08:35;;;;;;;18.67;12.60;;;30.80;27.20;;;;;;4748220;30;20123;-78
2021/03/30 12:11:02;;;;;;;16.33;13.13;;;30.70;26.40;;;;;;4762848;30;20067;-78
2021/03/30 12:13:30;;;;;;;15.15;11.80;;;30.80;26.10;;;;;;4762003;30;20048;-78
2021/03/30 12:15:56;;;;;;;15.73;12.90;;;30.80;26.00;;;;;;4734808;30;20048;-78
2021/03/30 12:18:23;;;;;;;19.90;15.20;;;30.80;26.30;;;;;;4767388;30;20063;-78
2021/03/30 12:20:49;;;;;;;16.63;13.77;;;30.70;25.80;;;;;;4755041;30;20048;-78
2021/03/30 12:23:16;;;;;;;21.70;16.98;;;30.80;26.40;;;;;;4784614;30;20055;-78
2021/03/30 12:25:43;;;;;;;20.33;15.43;;;30.80;26.80;;;;;;4753036;30;20051;-78
2021/03/30 12:28:09;;;;;;;19.45;14.25;;;31.10;26.80;;;;;;4765140;30;20047;-78
2021/03/30 12:30:36;;;;;;;19.73;13.82;;;31.50;26.80;;;;;;4764970;30;20047;-78
2021/03/30 12:33:03;;;;;;;23.15;17.00;;;32.00;26.30;;;;;;4760341;30;20044;-78
2021/03/30 12:35:29;;;;;;;24.83;18.38;;;32.30;26.20;;;;;;4745924;30;20055;-78
2021/03/30 12:37:56;;;;;;;23.83;19.05;;;32.40;26.30;;;;;;4762554;30;20045;-78
2021/03/30 12:40:22;;;;;;;21.75;18.15;;;32.60;26.70;;;;;;4745862;30;20055;-77
2021/03/30 12:42:51;;;;;;;24.25;17.92;;;32.70;26.20;;;;;;4744968;30;20051;-78
2021/03/30 12:45:19;;;;;;;23.63;17.10;;;32.80;26.20;;;;;;4743336;30;20063;-78
2021/03/30 12:47:46;;;;;;;25.38;19.80;;;33.10;26.60;;;;;;4746802;30;20526;-78
2021/03/30 12:50:25;;;;;;;29.42;22.77;;;33.30;26.50;;;;;;4758619;30;20052;-78
2021/03/30 12:52:53;;;;;;;28.00;21.98;;;32.90;26.20;;;;;;4758191;30;20055;-78
2021/03/30 12:55:20;;;;;;;26.83;20.23;;;32.10;26.70;;;;;;4757525;30;20044;-78
2021/03/30 12:57:46;;;;;;;29.45;22.63;;;31.50;27.20;;;;;;4744942;30;20059;-78
2021/03/30 13:00:13;;;;;;;32.10;24.05;;;31.10;27.40;;;;;;4759946;30;20054;-84